createdAt,value
2018-07-15T00:01:19.238Z,21.15
2018-07-15T00:03:49.011Z,21.05
2018-07-15T00:06:17.727Z,20.97
2018-07-15T00:08:46.440Z,20.81
2018-07-15T00:11:15.315Z,20.84
2018-07-15T00:13:44.088Z,20.89
2018-07-15T00:16:12.694Z,20.98
2018-07-15T00:18:41.608Z,20.94
2018-07-15T00:21:10.262Z,21.03
2018-07-15T00:23:38.875Z,21.20
2018-07-15T00:26:07.560Z,21.19
2018-07-15T00:28:36.117Z,21.19
2018-07-15T00:31:04.677Z,21.21
2018-07-15T00:33:33.349Z,21.28
2018-07-15T00:36:01.896Z,21.28
2018-07-15T00:38:30.663Z,21.36
2018-07-15T00:40:59.312Z,21.13
2018-07-15T00:43:27.830Z,20.95
2018-07-15T00:45:56.414Z,20.75
2018-07-15T00:48:25.155Z,20.86
2018-07-15T00:50:53.887Z,20.81
2018-07-15T00:53:22.644Z,20.63
2018-07-15T00:55:51.248Z,20.61
2018-07-15T00:58:19.926Z,20.53
2018-07-15T01:00:53.807Z,20.55
2018-07-15T01:03:22.464Z,20.41
2018-07-15T01:05:50.974Z,20.38
2018-07-15T01:08:19.702Z,20.27
2018-07-15T01:10:48.381Z,20.14
2018-07-15T01:13:17.105Z,20.16
2018-07-15T01:15:45.676Z,20.20
2018-07-15T01:18:14.301Z,19.94
2018-07-15T01:20:43.054Z,20.02
2018-07-15T01:23:12.160Z,20.17
2018-07-15T01:25:40.823Z,20.24
2018-07-15T01:28:09.642Z,20.46
2018-07-15T01:30:38.385Z,20.43
2018-07-15T01:33:07.516Z,20.48
2018-07-15T01:35:36.095Z,20.25
2018-07-15T01:38:04.749Z,20.15
2018-07-15T01:40:33.393Z,20.15
2018-07-15T01:43:02.007Z,20.14
2018-07-15T01:45:30.535Z,20.11
2018-07-15T01:47:59.062Z,20.35
2018-07-15T01:50:27.799Z,20.28
2018-07-15T01:52:56.452Z,20.29
2018-07-15T01:55:25.086Z,20.30
2018-07-15T01:57:53.741Z,20.36
2018-07-15T02:00:22.425Z,20.13
2018-07-15T02:02:51.003Z,20.11
2018-07-15T02:05:19.664Z,19.94
2018-07-15T02:07:48.327Z,19.69
2018-07-15T02:10:16.947Z,19.33
2018-07-15T02:12:45.632Z,19.30
2018-07-15T02:15:14.283Z,19.41
2018-07-15T02:17:42.905Z,19.45
2018-07-15T02:20:11.485Z,19.62
2018-07-15T02:22:40.294Z,19.65
2018-07-15T02:25:08.857Z,19.75
2018-07-15T02:27:37.486Z,19.72
2018-07-15T02:30:06.137Z,19.93
2018-07-15T02:32:34.823Z,19.90
2018-07-15T02:35:03.409Z,19.92
2018-07-15T02:37:32.214Z,19.90
2018-07-15T02:40:00.836Z,19.58
2018-07-15T02:42:29.471Z,19.37
2018-07-15T02:44:58.042Z,19.40
2018-07-15T02:47:26.704Z,19.31
2018-07-15T02:49:55.251Z,19.48
2018-07-15T02:52:23.914Z,19.43
2018-07-15T02:54:52.610Z,19.32
2018-07-15T02:57:21.238Z,19.17
2018-07-15T02:59:49.831Z,19.25
2018-07-15T03:02:18.463Z,19.35
2018-07-15T03:04:47.165Z,19.36
2018-07-15T03:07:15.754Z,19.42
2018-07-15T03:09:44.423Z,19.37
2018-07-15T03:12:13.166Z,19.34
2018-07-15T03:14:41.785Z,19.19
2018-07-15T03:17:10.460Z,19.06
2018-07-15T03:19:39.113Z,19.01
2018-07-15T03:22:08.247Z,19.09
2018-07-15T03:24:37.014Z,19.06
2018-07-15T03:27:05.685Z,18.92
2018-07-15T03:29:34.369Z,19.01
2018-07-15T03:32:03.099Z,18.95
2018-07-15T03:34:31.898Z,18.81
2018-07-15T03:37:00.556Z,18.95
2018-07-15T03:39:29.100Z,18.93
2018-07-15T03:41:57.753Z,19.05
2018-07-15T03:44:26.386Z,19.02
2018-07-15T03:46:55.025Z,18.92
2018-07-15T03:49:23.675Z,19.10
2018-07-15T03:51:52.242Z,19.10
2018-07-15T03:54:20.924Z,19.04
2018-07-15T03:56:49.559Z,19.28
2018-07-15T03:59:24.678Z,19.30
2018-07-15T04:01:53.302Z,19.26
2018-07-15T04:04:21.970Z,19.27
2018-07-15T04:06:50.784Z,19.28
2018-07-15T04:09:19.461Z,19.31
2018-07-15T04:11:48.096Z,19.31
2018-07-15T04:14:16.706Z,19.40
2018-07-15T04:16:45.393Z,19.39
2018-07-15T04:19:14.130Z,19.45
2018-07-15T04:21:42.818Z,19.47
2018-07-15T04:24:11.423Z,19.58
2018-07-15T04:26:40.045Z,19.88
2018-07-15T04:29:08.692Z,19.80
2018-07-15T04:31:37.188Z,19.91
2018-07-15T04:34:05.917Z,19.89
2018-07-15T04:36:34.581Z,19.94
2018-07-15T04:39:03.525Z,20.10
2018-07-15T04:41:32.049Z,20.19
2018-07-15T04:44:00.610Z,20.10
2018-07-15T04:46:29.183Z,20.25
2018-07-15T04:48:57.838Z,20.28
2018-07-15T04:51:26.431Z,20.28
2018-07-15T04:53:54.939Z,20.43
2018-07-15T04:56:23.563Z,20.49
2018-07-15T04:58:52.244Z,20.57
2018-07-15T05:01:21.062Z,20.31
2018-07-15T05:03:50.036Z,20.53
2018-07-15T05:06:19.225Z,20.57
2018-07-15T05:08:47.830Z,20.71
2018-07-15T05:11:16.509Z,20.62
2018-07-15T05:13:45.168Z,20.56
2018-07-15T05:16:13.805Z,20.39
2018-07-15T05:18:42.354Z,20.82
2018-07-15T05:21:11.005Z,21.01
2018-07-15T05:23:39.632Z,21.41
2018-07-15T05:26:08.335Z,21.71
2018-07-15T05:28:37.015Z,21.94
2018-07-15T05:31:05.722Z,21.80
2018-07-15T05:33:34.291Z,22.04
2018-07-15T05:36:03.015Z,22.10
2018-07-15T05:38:32.820Z,22.32
2018-07-15T05:41:01.455Z,22.58
2018-07-15T05:43:30.159Z,22.71
2018-07-15T05:45:58.727Z,22.60
2018-07-15T05:48:27.348Z,22.78
2018-07-15T05:50:55.913Z,22.81
2018-07-15T05:53:24.590Z,23.32
2018-07-15T05:55:53.178Z,23.71
2018-07-15T05:58:21.784Z,23.85
2018-07-15T06:00:50.359Z,24.04
2018-07-15T06:03:19.016Z,24.24
2018-07-15T06:05:47.727Z,24.20
2018-07-15T06:08:16.344Z,24.55
2018-07-15T06:10:45.098Z,24.60
2018-07-15T06:13:13.640Z,24.79
2018-07-15T06:15:42.259Z,24.92
2018-07-15T06:18:13.971Z,25.00
2018-07-15T06:20:42.492Z,25.43
2018-07-15T06:23:11.077Z,25.88
2018-07-15T06:25:39.606Z,26.00
2018-07-15T06:28:08.462Z,26.30
2018-07-15T06:30:37.578Z,26.51
2018-07-15T06:33:06.590Z,26.48
2018-07-15T06:35:35.228Z,26.63
2018-07-15T06:38:04.052Z,26.99
2018-07-15T06:40:32.662Z,27.22
2018-07-15T06:43:01.242Z,27.36
2018-07-15T06:45:29.904Z,27.45
2018-07-15T06:47:58.498Z,27.55
2018-07-15T06:50:27.147Z,27.97
2018-07-15T06:52:55.714Z,27.38
2018-07-15T06:55:24.451Z,28.15
2018-07-15T06:57:53.034Z,27.64
2018-07-15T07:00:21.619Z,28.41
2018-07-15T07:02:50.259Z,28.18
2018-07-15T07:05:19.041Z,28.52
2018-07-15T07:07:47.823Z,28.40
2018-07-15T07:10:16.328Z,28.54
2018-07-15T07:12:44.940Z,28.61
2018-07-15T07:15:13.527Z,28.35
2018-07-15T07:17:42.062Z,28.37
2018-07-15T07:20:10.644Z,28.51
2018-07-15T07:22:39.250Z,28.30
2018-07-15T07:25:07.749Z,28.13
2018-07-15T07:27:36.344Z,27.97
2018-07-15T07:30:05.018Z,27.86
2018-07-15T07:32:33.745Z,27.86
2018-07-15T07:35:02.423Z,28.48
2018-07-15T07:37:31.008Z,28.33
2018-07-15T07:39:59.693Z,29.04
2018-07-15T07:42:28.287Z,28.41
2018-07-15T07:44:57.058Z,28.12
2018-07-15T07:47:25.708Z,28.60
2018-07-15T07:49:54.366Z,28.97
2018-07-15T07:52:23.043Z,28.47
2018-07-15T07:54:51.852Z,28.48
2018-07-15T07:57:20.469Z,28.64
2018-07-15T07:59:48.996Z,28.90
2018-07-15T08:02:17.722Z,29.03
2018-07-15T08:04:46.375Z,28.76
2018-07-15T08:07:15.187Z,29.04
2018-07-15T08:09:43.812Z,29.22
2018-07-15T08:12:12.536Z,29.14
2018-07-15T08:14:41.308Z,29.55
2018-07-15T08:17:09.919Z,29.92
2018-07-15T08:19:38.640Z,30.42
2018-07-15T08:22:07.491Z,30.67
2018-07-15T08:24:36.162Z,30.29
2018-07-15T08:27:05.964Z,29.77
2018-07-15T08:29:34.603Z,30.47
2018-07-15T08:32:03.287Z,30.54
2018-07-15T08:34:32.074Z,30.80
2018-07-15T08:37:00.622Z,31.03
2018-07-15T08:39:29.219Z,31.06
2018-07-15T08:41:59.024Z,30.99
2018-07-15T08:44:27.565Z,30.79
2018-07-15T08:46:56.344Z,31.24
2018-07-15T08:49:25.011Z,30.80
2018-07-15T08:51:53.798Z,30.92
2018-07-15T08:54:22.558Z,30.72
2018-07-15T08:56:51.233Z,30.65
2018-07-15T08:59:20.614Z,30.70
2018-07-15T09:01:49.350Z,30.66
2018-07-15T09:04:17.999Z,30.69
2018-07-15T09:06:46.562Z,31.20
2018-07-15T09:09:15.454Z,30.63
2018-07-15T09:11:44.581Z,30.64
2018-07-15T09:14:13.256Z,30.83
2018-07-15T09:16:42.020Z,30.65
2018-07-15T09:19:10.696Z,30.70
2018-07-15T09:21:39.342Z,31.23
2018-07-15T09:24:08.014Z,31.38
2018-07-15T09:26:36.846Z,31.68
2018-07-15T09:29:05.703Z,32.34
2018-07-15T09:31:34.905Z,32.10
2018-07-15T09:34:03.471Z,32.54
2018-07-15T09:36:32.218Z,32.36
2018-07-15T09:39:00.881Z,32.27
2018-07-15T09:41:29.583Z,32.86
2018-07-15T09:43:58.469Z,32.17
2018-07-15T09:46:27.306Z,32.18
2018-07-15T09:48:56.020Z,32.51
2018-07-15T09:51:24.629Z,32.02
2018-07-15T09:53:53.283Z,32.08
2018-07-15T09:56:25.514Z,31.87
2018-07-15T09:58:54.755Z,32.24
2018-07-15T10:01:23.819Z,31.90
2018-07-15T10:03:52.891Z,31.66
2018-07-15T10:06:21.510Z,31.70
2018-07-15T10:08:50.134Z,31.50
2018-07-15T10:11:18.818Z,31.06
2018-07-15T10:13:47.483Z,31.09
2018-07-15T10:16:16.140Z,30.80
2018-07-15T10:18:44.745Z,31.28
2018-07-15T10:21:13.363Z,31.50
2018-07-15T10:23:41.954Z,32.09
2018-07-15T10:26:10.613Z,32.50
2018-07-15T10:28:39.337Z,31.89
2018-07-15T10:31:08.021Z,32.49
2018-07-15T10:33:36.652Z,32.83
2018-07-15T10:36:05.345Z,33.06
2018-07-15T10:38:33.951Z,33.50
2018-07-15T10:41:02.687Z,32.96
2018-07-15T10:43:31.355Z,33.03
2018-07-15T10:46:00.081Z,33.22
2018-07-15T10:48:28.696Z,33.02
2018-07-15T10:50:57.266Z,32.39
2018-07-15T10:53:25.984Z,33.02
2018-07-15T10:55:54.944Z,33.13
2018-07-15T10:58:23.813Z,33.35
2018-07-15T11:00:52.484Z,33.30
2018-07-15T11:03:21.239Z,32.48
2018-07-15T11:05:49.830Z,32.09
2018-07-15T11:08:18.431Z,32.37
2018-07-15T11:10:47.337Z,32.08
2018-07-15T11:13:16.158Z,32.04
2018-07-15T11:15:45.123Z,32.08
2018-07-15T11:18:13.816Z,32.06
2018-07-15T11:20:42.418Z,31.79
2018-07-15T11:23:11.083Z,32.10
2018-07-15T11:25:39.740Z,31.94
2018-07-15T11:28:08.396Z,31.55
2018-07-15T11:30:36.992Z,31.89
2018-07-15T11:33:05.821Z,31.53
2018-07-15T11:35:34.428Z,31.16
2018-07-15T11:38:03.466Z,31.04
2018-07-15T11:40:32.376Z,30.92
2018-07-15T11:43:01.906Z,30.81
2018-07-15T11:45:31.693Z,30.47
2018-07-15T11:48:00.454Z,30.03
2018-07-15T11:50:29.219Z,30.08
2018-07-15T11:52:58.383Z,29.79
2018-07-15T11:55:27.027Z,29.45
2018-07-15T11:57:55.702Z,29.29
2018-07-15T12:00:24.244Z,29.14
2018-07-15T14:12:01.869Z,36.08
2018-07-15T14:14:30.559Z,35.28
2018-07-15T14:16:59.174Z,36.39
2018-07-15T14:19:27.985Z,38.45
2018-07-15T14:21:56.877Z,39.63
2018-07-15T14:24:25.642Z,41.19
2018-07-15T14:26:55.840Z,42.11
2018-07-15T14:29:24.572Z,44.54
2018-07-15T14:31:53.219Z,48.55
2018-07-15T14:34:21.980Z,47.28
2018-07-15T14:36:50.623Z,49.58
2018-07-15T14:39:19.174Z,51.03
2018-07-15T14:41:47.792Z,50.17
2018-07-15T14:44:16.414Z,52.60
2018-07-15T14:46:45.086Z,55.37
2018-07-15T14:49:13.657Z,55.28
2018-07-15T14:51:42.195Z,55.86
2018-07-15T14:54:10.932Z,54.05
2018-07-15T14:56:44.278Z,49.02
2018-07-15T14:59:13.137Z,49.48
2018-07-15T15:01:42.847Z,48.06
2018-07-15T15:04:11.505Z,46.72
2018-07-15T15:06:40.070Z,44.07
2018-07-15T15:09:09.155Z,41.65
2018-07-15T15:11:37.840Z,41.05
2018-07-15T15:14:07.113Z,39.95
2018-07-15T15:16:35.986Z,40.41
2018-07-15T15:19:05.050Z,38.74
2018-07-15T15:21:33.705Z,36.97
2018-07-15T15:24:02.332Z,35.31
2018-07-15T15:26:31.006Z,34.02
2018-07-15T15:29:00.295Z,33.57
2018-07-15T15:31:28.858Z,32.72
2018-07-15T15:33:57.608Z,31.06
2018-07-15T15:36:26.424Z,29.30
2018-07-15T15:38:54.995Z,28.56
2018-07-15T15:41:23.662Z,28.36
2018-07-15T15:43:52.227Z,28.89
2018-07-15T15:46:20.771Z,28.84
2018-07-15T15:48:49.414Z,28.36
2018-07-15T15:51:18.058Z,28.01
2018-07-15T15:53:46.663Z,28.11
2018-07-15T15:56:15.253Z,28.73
2018-07-15T15:58:43.867Z,28.82
2018-07-15T16:01:12.517Z,29.20
2018-07-15T16:03:41.105Z,29.45
2018-07-15T16:06:09.801Z,29.18
2018-07-15T16:08:38.548Z,28.27
2018-07-15T16:11:07.125Z,29.04
2018-07-15T16:13:35.762Z,29.28
2018-07-15T16:16:04.399Z,29.94
2018-07-15T16:18:33.052Z,29.59
2018-07-15T16:21:01.679Z,29.01
2018-07-15T16:23:30.290Z,28.53
2018-07-15T16:25:59.058Z,28.23
2018-07-15T16:28:27.744Z,28.18
2018-07-15T16:30:56.374Z,27.99
2018-07-15T16:33:24.995Z,27.96
2018-07-15T16:35:53.620Z,27.99
2018-07-15T16:38:22.365Z,27.96
2018-07-15T16:40:51.007Z,27.94
2018-07-15T16:43:19.637Z,28.17
2018-07-15T16:45:48.502Z,28.28
2018-07-15T16:48:17.218Z,28.19
2018-07-15T16:50:46.079Z,28.40
2018-07-15T16:53:14.784Z,28.17
2018-07-15T16:55:43.595Z,28.16
2018-07-15T16:58:12.256Z,28.08
2018-07-15T17:00:40.996Z,27.34
2018-07-15T17:03:10.180Z,27.35
2018-07-15T17:05:38.803Z,27.73
2018-07-15T17:08:07.397Z,27.82
2018-07-15T17:10:36.051Z,28.11
2018-07-15T17:13:04.636Z,27.94
2018-07-15T17:15:33.254Z,27.56
2018-07-15T17:18:01.910Z,27.29
2018-07-15T17:20:30.538Z,26.90
2018-07-15T17:22:59.345Z,26.94
2018-07-15T17:25:28.034Z,26.79
2018-07-15T17:27:56.792Z,26.70
2018-07-15T17:30:25.396Z,26.62
2018-07-15T17:32:54.004Z,27.10
2018-07-15T17:35:22.759Z,27.56
2018-07-15T17:37:51.563Z,27.92
2018-07-15T17:40:20.312Z,27.76
2018-07-15T17:42:49.103Z,27.80
2018-07-15T17:45:17.764Z,28.24
2018-07-15T17:47:46.384Z,28.38
2018-07-15T17:50:14.959Z,28.54
2018-07-15T17:52:43.663Z,28.63
2018-07-15T17:55:12.284Z,28.36
2018-07-15T17:57:40.923Z,27.76
2018-07-15T18:00:16.309Z,27.43
2018-07-15T18:02:44.870Z,26.93
2018-07-15T18:05:13.452Z,26.83
2018-07-15T18:07:42.032Z,26.46
2018-07-15T18:10:10.814Z,26.58
2018-07-15T18:12:39.472Z,26.38
2018-07-15T18:15:08.090Z,26.59
2018-07-15T18:17:36.903Z,26.51
2018-07-15T18:20:05.694Z,26.32
2018-07-15T18:22:34.450Z,25.95
2018-07-15T18:25:03.063Z,25.70
2018-07-15T18:27:31.699Z,25.11
2018-07-15T18:30:00.339Z,24.98
2018-07-15T18:32:54.578Z,24.90
2018-07-15T18:35:23.401Z,24.78
2018-07-15T18:37:52.075Z,24.65
2018-07-15T18:40:22.056Z,24.63
2018-07-15T18:42:50.813Z,24.57
2018-07-15T18:45:19.423Z,24.40
2018-07-15T18:47:48.478Z,23.69
2018-07-15T18:50:22.648Z,23.90
2018-07-15T18:52:52.247Z,23.73
2018-07-15T18:55:21.684Z,23.55
2018-07-15T18:57:50.734Z,23.72
2018-07-15T19:00:19.945Z,23.50
2018-07-15T19:02:49.043Z,23.25
2018-07-15T19:05:18.512Z,22.85
2018-07-15T19:07:48.665Z,22.67
2018-07-15T19:10:17.192Z,22.49
2018-07-15T19:12:46.972Z,22.45
2018-07-15T19:15:15.704Z,22.22
2018-07-15T19:17:44.391Z,22.06
2018-07-15T19:20:12.945Z,21.86
2018-07-15T19:22:42.051Z,21.75
2018-07-15T19:25:10.761Z,21.57
2018-07-15T19:27:43.618Z,21.33
2018-07-15T19:30:13.656Z,21.26
2018-07-15T19:32:42.717Z,21.16
2018-07-15T19:35:11.244Z,21.08
2018-07-15T19:37:39.880Z,20.92
2018-07-15T19:40:08.440Z,20.80
2018-07-15T19:42:37.251Z,20.71
2018-07-15T19:45:07.436Z,20.62
2018-07-15T19:47:36.368Z,20.64
2018-07-15T19:50:05.708Z,20.59
2018-07-15T19:52:34.313Z,20.50
2018-07-15T19:55:03.269Z,20.46
2018-07-15T19:57:31.981Z,20.37
2018-07-15T20:00:03.038Z,20.34
2018-07-15T20:02:33.066Z,20.30
2018-07-15T20:05:01.653Z,20.23
2018-07-15T20:07:32.488Z,20.17
2018-07-15T20:10:01.168Z,20.15
2018-07-15T20:12:29.851Z,20.08
2018-07-15T20:14:58.422Z,20.13
2018-07-15T20:17:27.167Z,20.25
2018-07-15T20:19:55.993Z,20.25
2018-07-15T20:22:24.583Z,20.30
2018-07-15T20:24:53.242Z,20.20
2018-07-15T20:27:22.019Z,20.23
2018-07-15T20:29:52.558Z,20.32
2018-07-15T20:32:21.566Z,20.37
2018-07-15T20:34:50.387Z,20.28
2018-07-15T20:37:20.008Z,20.32
2018-07-15T20:39:49.571Z,20.17
2018-07-15T20:42:19.415Z,20.21
2018-07-15T20:44:47.915Z,20.30
2018-07-15T20:47:16.873Z,20.39
2018-07-15T20:49:45.407Z,20.53
2018-07-15T20:52:15.525Z,20.64
2018-07-15T20:54:44.162Z,20.73
2018-07-15T20:57:12.798Z,20.90
2018-07-15T20:59:41.310Z,20.88
2018-07-15T21:02:12.059Z,20.83
2018-07-15T21:04:40.746Z,20.91
2018-07-15T21:07:13.276Z,21.03
2018-07-15T21:09:46.025Z,21.04
2018-07-15T21:12:17.615Z,20.90
2018-07-15T21:14:47.593Z,20.86
2018-07-15T21:17:19.619Z,20.66
2018-07-15T21:19:48.210Z,20.67
2018-07-15T21:22:17.084Z,20.58
2018-07-15T21:24:45.860Z,20.58
2018-07-15T21:27:15.201Z,20.61
2018-07-15T21:29:46.730Z,20.47
2018-07-15T21:32:15.263Z,20.43
2018-07-15T21:34:44.232Z,20.40
2018-07-15T21:37:13.353Z,20.30
2018-07-15T21:39:42.215Z,20.23
2018-07-15T21:42:13.384Z,20.21
2018-07-15T21:44:44.541Z,20.25
2018-07-15T21:47:13.787Z,20.26
2018-07-15T21:49:42.531Z,20.36
2018-07-15T21:52:12.147Z,20.41
2018-07-15T21:54:40.758Z,20.34
2018-07-15T21:57:10.651Z,20.41
2018-07-15T21:59:39.367Z,20.39
2018-07-15T22:02:07.996Z,20.42
2018-07-15T22:04:36.528Z,20.33
2018-07-15T22:07:16.230Z,20.31
2018-07-15T22:09:56.622Z,20.37
2018-07-15T22:12:25.219Z,20.51
2018-07-15T22:14:53.814Z,20.57
2018-07-15T22:17:23.299Z,20.62
2018-07-15T22:19:51.791Z,20.62
2018-07-15T22:22:20.400Z,20.60
2018-07-15T22:24:48.972Z,20.62
2018-07-15T22:27:17.634Z,20.54
2018-07-15T22:29:46.308Z,20.53
2018-07-15T22:32:14.882Z,20.47
2018-07-15T22:34:43.551Z,20.53
2018-07-15T22:37:12.165Z,20.50
2018-07-15T22:39:40.714Z,20.59
2018-07-15T22:42:09.303Z,20.63
2018-07-15T22:44:37.868Z,20.64
2018-07-15T22:47:06.534Z,20.53
2018-07-15T22:49:35.187Z,20.58
2018-07-15T22:52:03.724Z,20.56
2018-07-15T22:54:32.520Z,20.48
2018-07-15T22:57:01.020Z,20.51
2018-07-15T22:59:29.542Z,20.65
2018-07-15T23:01:58.179Z,20.69
2018-07-15T23:05:57.366Z,20.59
2018-07-15T23:08:27.183Z,20.54
2018-07-15T23:10:55.696Z,20.64
2018-07-15T23:13:24.410Z,20.66
2018-07-15T23:15:53.155Z,20.54
2018-07-15T23:18:22.103Z,20.50
2018-07-15T23:20:51.283Z,20.47
2018-07-15T23:23:19.869Z,20.43
2018-07-15T23:25:48.557Z,20.45
2018-07-15T23:28:17.965Z,20.39
2018-07-15T23:30:46.841Z,20.39
2018-07-15T23:33:15.477Z,20.36
2018-07-15T23:35:44.112Z,20.39
2018-07-15T23:38:12.771Z,20.49
2018-07-15T23:40:41.283Z,20.57
2018-07-15T23:43:09.958Z,20.55
2018-07-15T23:45:38.642Z,20.58
2018-07-15T23:48:07.209Z,20.54
2018-07-15T23:50:35.904Z,20.53
2018-07-15T23:53:04.593Z,20.56
2018-07-15T23:55:33.253Z,20.59
2018-07-15T23:58:01.818Z,20.51
